sensor_id;sensor_type;location;lat;lon;timestamp;P1;durP1;ratioP1;P2;durP2;ratioP2
25667;SDS011;18003;-33.830;151.202;2022-12-18T00:01:36;2.40;;;1.47;;
25667;SDS011;18003;-33.830;151.202;2022-12-18T00:06:56;3.05;;;1.10;;
25667;SDS011;18003;-33.830;151.202;2022-12-18T00:09:26;2.10;;;0.90;;
25667;SDS011;18003;-33.830;151.202;2022-12-18T00:11:56;1.92;;;1.12;;
25667;SDS011;18003;-33.830;151.202;2022-12-18T00:14:26;2.47;;;1.20;;
25667;SDS011;18003;-33.830;151.202;2022-12-18T00:16:56;3.35;;;1.20;;
25667;SDS011;18003;-33.830;151.202;2022-12-18T00:19:27;2.65;;;1.10;;
25667;SDS011;18003;-33.830;151.202;2022-12-18T00:21:57;2.22;;;1.00;;
25667;SDS011;18003;-33.830;151.202;2022-12-18T00:24:27;1.95;;;1.00;;
25667;SDS011;18003;-33.830;151.202;2022-12-18T00:26:57;3.67;;;1.35;;
25667;SDS011;18003;-33.830;151.202;2022-12-18T00:29:27;1.67;;;1.07;;
25667;SDS011;18003;-33.830;151.202;2022-12-18T00:31:57;2.77;;;1.10;;
25667;SDS011;18003;-33.830;151.202;2022-12-18T00:34:27;3.00;;;1.00;;
25667;SDS011;18003;-33.830;151.202;2022-12-18T00:36:57;1.90;;;1.00;;
25667;SDS011;18003;-33.830;151.202;2022-12-18T00:39:27;2.50;;;0.90;;
25667;SDS011;18003;-33.830;151.202;2022-12-18T00:41:57;5.28;;;1.30;;
25667;SDS011;18003;-33.830;151.202;2022-12-18T00:44:44;2.35;;;1.00;;
25667;SDS011;18003;-33.830;151.202;2022-12-18T00:47:14;3.30;;;1.20;;
25667;SDS011;18003;-33.830;151.202;2022-12-18T00:49:44;2.50;;;1.45;;
25667;SDS011;18003;-33.830;151.202;2022-12-18T00:52:14;3.80;;;1.30;;
25667;SDS011;18003;-33.830;151.202;2022-12-18T00:54:44;1.90;;;1.40;;
25667;SDS011;18003;-33.830;151.202;2022-12-18T00:57:14;2.20;;;1.22;;
25667;SDS011;18003;-33.830;151.202;2022-12-18T00:59:44;3.80;;;1.40;;
25667;SDS011;18003;-33.830;151.202;2022-12-18T01:02:14;3.37;;;1.30;;
25667;SDS011;18003;-33.830;151.202;2022-12-18T01:04:44;2.77;;;1.32;;
25667;SDS011;18003;-33.830;151.202;2022-12-18T01:07:15;3.25;;;1.30;;
25667;SDS011;18003;-33.830;151.202;2022-12-18T01:09:45;2.57;;;1.20;;
25667;SDS011;18003;-33.830;151.202;2022-12-18T01:12:15;4.83;;;1.30;;
25667;SDS011;18003;-33.830;151.202;2022-12-18T01:14:45;2.90;;;1.30;;
25667;SDS011;18003;-33.830;151.202;2022-12-18T01:17:15;2.60;;;1.30;;
25667;SDS011;18003;-33.830;151.202;2022-12-18T01:19:45;2.95;;;1.30;;
25667;SDS011;18003;-33.830;151.202;2022-12-18T01:22:15;2.83;;;1.47;;
25667;SDS011;18003;-33.830;151.202;2022-12-18T01:24:45;4.55;;;1.50;;
25667;SDS011;18003;-33.830;151.202;2022-12-18T01:27:15;4.17;;;1.52;;
25667;SDS011;18003;-33.830;151.202;2022-12-18T01:29:45;5.92;;;1.80;;
25667;SDS011;18003;-33.830;151.202;2022-12-18T01:32:16;5.37;;;1.50;;
25667;SDS011;18003;-33.830;151.202;2022-12-18T01:34:46;3.15;;;1.45;;
25667;SDS011;18003;-33.830;151.202;2022-12-18T01:37:16;5.85;;;1.50;;
25667;SDS011;18003;-33.830;151.202;2022-12-18T01:39:46;5.20;;;1.67;;
25667;SDS011;18003;-33.830;151.202;2022-12-18T01:42:16;4.58;;;1.70;;
25667;SDS011;18003;-33.830;151.202;2022-12-18T01:44:57;4.65;;;1.62;;
25667;SDS011;18003;-33.830;151.202;2022-12-18T01:47:46;74.45;;;9.00;;
25667;SDS011;18003;-33.830;151.202;2022-12-18T01:50:19;45.28;;;6.12;;
25667;SDS011;18003;-33.830;151.202;2022-12-18T01:52:55;62.60;;;7.78;;
25667;SDS011;18003;-33.830;151.202;2022-12-18T01:55:37;29.03;;;5.30;;
25667;SDS011;18003;-33.830;151.202;2022-12-18T02:00:34;14.18;;;3.25;;
25667;SDS011;18003;-33.830;151.202;2022-12-18T02:03:04;17.73;;;3.02;;
25667;SDS011;18003;-33.830;151.202;2022-12-18T02:05:47;18.55;;;2.58;;
25667;SDS011;18003;-33.830;151.202;2022-12-18T02:13:40;6.50;;;2.05;;
25667;SDS011;18003;-33.830;151.202;2022-12-18T02:19:27;6.28;;;2.20;;
25667;SDS011;18003;-33.830;151.202;2022-12-18T02:21:58;6.20;;;2.12;;
25667;SDS011;18003;-33.830;151.202;2022-12-18T02:25:05;10.25;;;2.27;;
25667;SDS011;18003;-33.830;151.202;2022-12-18T02:27:14;6.35;;;2.40;;
25667;SDS011;18003;-33.830;151.202;2022-12-18T02:29:51;16.75;;;2.92;;
25667;SDS011;18003;-33.830;151.202;2022-12-18T02:32:27;21.15;;;3.60;;
25667;SDS011;18003;-33.830;151.202;2022-12-18T02:34:58;14.70;;;2.90;;
25667;SDS011;18003;-33.830;151.202;2022-12-18T02:37:30;134.47;;;17.23;;
25667;SDS011;18003;-33.830;151.202;2022-12-18T02:40:01;36.50;;;5.72;;
25667;SDS011;18003;-33.830;151.202;2022-12-18T02:42:33;32.33;;;5.92;;
25667;SDS011;18003;-33.830;151.202;2022-12-18T02:45:03;20.65;;;3.70;;
25667;SDS011;18003;-33.830;151.202;2022-12-18T02:47:38;18.37;;;3.75;;
25667;SDS011;18003;-33.830;151.202;2022-12-18T02:55:44;12.37;;;2.80;;
25667;SDS011;18003;-33.830;151.202;2022-12-18T02:58:30;9.30;;;2.40;;
25667;SDS011;18003;-33.830;151.202;2022-12-18T03:03:43;8.18;;;2.45;;
25667;SDS011;18003;-33.830;151.202;2022-12-18T03:06:16;9.10;;;2.77;;
25667;SDS011;18003;-33.830;151.202;2022-12-18T03:08:42;7.72;;;2.42;;
25667;SDS011;18003;-33.830;151.202;2022-12-18T03:11:14;6.28;;;2.30;;
25667;SDS011;18003;-33.830;151.202;2022-12-18T03:16:24;6.58;;;2.27;;
25667;SDS011;18003;-33.830;151.202;2022-12-18T03:18:56;6.25;;;1.80;;
25667;SDS011;18003;-33.830;151.202;2022-12-18T03:21:34;6.87;;;1.92;;
25667;SDS011;18003;-33.830;151.202;2022-12-18T03:24:05;5.58;;;2.30;;
25667;SDS011;18003;-33.830;151.202;2022-12-18T03:26:38;7.65;;;2.52;;
25667;SDS011;18003;-33.830;151.202;2022-12-18T03:29:17;6.95;;;2.72;;
25667;SDS011;18003;-33.830;151.202;2022-12-18T03:31:48;7.17;;;2.70;;
25667;SDS011;18003;-33.830;151.202;2022-12-18T03:34:25;6.80;;;3.20;;
25667;SDS011;18003;-33.830;151.202;2022-12-18T03:36:50;8.98;;;2.70;;
25667;SDS011;18003;-33.830;151.202;2022-12-18T03:39:20;5.50;;;2.92;;
25667;SDS011;18003;-33.830;151.202;2022-12-18T03:41:55;9.05;;;2.95;;
25667;SDS011;18003;-33.830;151.202;2022-12-18T03:44:33;9.23;;;2.72;;
25667;SDS011;18003;-33.830;151.202;2022-12-18T03:49:38;7.25;;;2.60;;
25667;SDS011;18003;-33.830;151.202;2022-12-18T03:54:40;9.65;;;2.50;;
25667;SDS011;18003;-33.830;151.202;2022-12-18T03:59:41;7.35;;;2.30;;
25667;SDS011;18003;-33.830;151.202;2022-12-18T04:02:13;8.93;;;2.62;;
25667;SDS011;18003;-33.830;151.202;2022-12-18T04:04:45;7.65;;;2.35;;
25667;SDS011;18003;-33.830;151.202;2022-12-18T04:07:17;9.18;;;2.47;;
25667;SDS011;18003;-33.830;151.202;2022-12-18T04:09:48;7.10;;;2.30;;
25667;SDS011;18003;-33.830;151.202;2022-12-18T04:12:20;7.83;;;2.20;;
25667;SDS011;18003;-33.830;151.202;2022-12-18T04:17:19;7.87;;;2.40;;
25667;SDS011;18003;-33.830;151.202;2022-12-18T04:19:50;9.53;;;2.90;;
25667;SDS011;18003;-33.830;151.202;2022-12-18T04:22:20;7.58;;;2.45;;
25667;SDS011;18003;-33.830;151.202;2022-12-18T04:24:50;5.85;;;2.20;;
25667;SDS011;18003;-33.830;151.202;2022-12-18T04:27:20;7.35;;;2.37;;
25667;SDS011;18003;-33.830;151.202;2022-12-18T04:29:50;6.33;;;2.30;;
25667;SDS011;18003;-33.830;151.202;2022-12-18T04:32:20;6.30;;;2.17;;
25667;SDS011;18003;-33.830;151.202;2022-12-18T04:34:50;7.35;;;2.40;;
25667;SDS011;18003;-33.830;151.202;2022-12-18T04:37:20;5.97;;;2.02;;
25667;SDS011;18003;-33.830;151.202;2022-12-18T04:39:50;7.85;;;2.33;;
25667;SDS011;18003;-33.830;151.202;2022-12-18T04:42:20;6.42;;;2.40;;
25667;SDS011;18003;-33.830;151.202;2022-12-18T04:44:50;3.98;;;1.82;;
25667;SDS011;18003;-33.830;151.202;2022-12-18T04:47:20;6.40;;;2.30;;
25667;SDS011;18003;-33.830;151.202;2022-12-18T04:49:50;6.30;;;1.95;;
25667;SDS011;18003;-33.830;151.202;2022-12-18T04:52:20;5.90;;;2.08;;
25667;SDS011;18003;-33.830;151.202;2022-12-18T04:54:50;6.45;;;2.20;;
25667;SDS011;18003;-33.830;151.202;2022-12-18T04:57:20;6.72;;;2.20;;
25667;SDS011;18003;-33.830;151.202;2022-12-18T04:59:50;8.68;;;2.52;;
25667;SDS011;18003;-33.830;151.202;2022-12-18T05:02:20;12.23;;;2.60;;
25667;SDS011;18003;-33.830;151.202;2022-12-18T05:04:50;7.62;;;2.20;;
25667;SDS011;18003;-33.830;151.202;2022-12-18T05:07:20;6.35;;;2.00;;
25667;SDS011;18003;-33.830;151.202;2022-12-18T05:09:50;5.78;;;2.17;;
25667;SDS011;18003;-33.830;151.202;2022-12-18T05:12:23;4.80;;;2.00;;
25667;SDS011;18003;-33.830;151.202;2022-12-18T05:14:54;6.47;;;1.98;;
25667;SDS011;18003;-33.830;151.202;2022-12-18T05:17:24;7.75;;;2.65;;
25667;SDS011;18003;-33.830;151.202;2022-12-18T05:19:55;5.72;;;1.87;;
25667;SDS011;18003;-33.830;151.202;2022-12-18T05:22:25;7.15;;;2.02;;
25667;SDS011;18003;-33.830;151.202;2022-12-18T05:24:55;7.20;;;2.00;;
25667;SDS011;18003;-33.830;151.202;2022-12-18T05:27:25;7.03;;;2.02;;
25667;SDS011;18003;-33.830;151.202;2022-12-18T05:29:55;3.92;;;2.02;;
25667;SDS011;18003;-33.830;151.202;2022-12-18T05:32:25;8.28;;;2.20;;
25667;SDS011;18003;-33.830;151.202;2022-12-18T05:34:55;6.00;;;1.80;;
25667;SDS011;18003;-33.830;151.202;2022-12-18T05:37:25;8.63;;;2.35;;
25667;SDS011;18003;-33.830;151.202;2022-12-18T05:39:56;7.90;;;2.37;;
25667;SDS011;18003;-33.830;151.202;2022-12-18T05:42:26;9.50;;;2.10;;
25667;SDS011;18003;-33.830;151.202;2022-12-18T05:44:56;6.37;;;2.05;;
25667;SDS011;18003;-33.830;151.202;2022-12-18T05:47:26;5.22;;;1.77;;
25667;SDS011;18003;-33.830;151.202;2022-12-18T05:49:56;6.80;;;2.00;;
25667;SDS011;18003;-33.830;151.202;2022-12-18T05:52:26;6.80;;;1.85;;
25667;SDS011;18003;-33.830;151.202;2022-12-18T05:54:56;4.35;;;1.70;;
25667;SDS011;18003;-33.830;151.202;2022-12-18T05:57:26;5.35;;;2.12;;
25667;SDS011;18003;-33.830;151.202;2022-12-18T05:59:56;7.55;;;2.40;;
25667;SDS011;18003;-33.830;151.202;2022-12-18T06:02:26;5.60;;;2.08;;
25667;SDS011;18003;-33.830;151.202;2022-12-18T06:04:56;6.75;;;2.27;;
25667;SDS011;18003;-33.830;151.202;2022-12-18T06:07:26;5.22;;;1.95;;
25667;SDS011;18003;-33.830;151.202;2022-12-18T06:09:56;6.08;;;1.80;;
25667;SDS011;18003;-33.830;151.202;2022-12-18T06:12:26;7.60;;;2.02;;
25667;SDS011;18003;-33.830;151.202;2022-12-18T06:14:56;6.33;;;1.92;;
25667;SDS011;18003;-33.830;151.202;2022-12-18T06:17:28;4.50;;;1.75;;
25667;SDS011;18003;-33.830;151.202;2022-12-18T06:19:58;8.88;;;2.20;;
25667;SDS011;18003;-33.830;151.202;2022-12-18T06:22:30;8.60;;;2.20;;
25667;SDS011;18003;-33.830;151.202;2022-12-18T06:25:00;6.50;;;2.08;;
25667;SDS011;18003;-33.830;151.202;2022-12-18T06:27:30;8.38;;;2.60;;
25667;SDS011;18003;-33.830;151.202;2022-12-18T06:30:00;7.35;;;2.50;;
25667;SDS011;18003;-33.830;151.202;2022-12-18T06:32:30;7.50;;;2.50;;
25667;SDS011;18003;-33.830;151.202;2022-12-18T06:35:00;6.33;;;2.17;;
25667;SDS011;18003;-33.830;151.202;2022-12-18T06:37:30;5.28;;;2.10;;
25667;SDS011;18003;-33.830;151.202;2022-12-18T06:40:00;9.83;;;2.83;;
25667;SDS011;18003;-33.830;151.202;2022-12-18T06:42:30;7.33;;;2.30;;
25667;SDS011;18003;-33.830;151.202;2022-12-18T06:45:00;3.55;;;2.10;;
25667;SDS011;18003;-33.830;151.202;2022-12-18T06:47:31;6.12;;;2.20;;
25667;SDS011;18003;-33.830;151.202;2022-12-18T06:50:01;6.17;;;2.00;;
25667;SDS011;18003;-33.830;151.202;2022-12-18T06:52:32;5.12;;;2.10;;
25667;SDS011;18003;-33.830;151.202;2022-12-18T06:55:02;6.70;;;2.10;;
25667;SDS011;18003;-33.830;151.202;2022-12-18T06:57:33;6.35;;;2.00;;
25667;SDS011;18003;-33.830;151.202;2022-12-18T07:00:03;7.75;;;2.17;;
25667;SDS011;18003;-33.830;151.202;2022-12-18T07:02:34;8.48;;;2.10;;
25667;SDS011;18003;-33.830;151.202;2022-12-18T07:05:04;6.28;;;1.80;;
25667;SDS011;18003;-33.830;151.202;2022-12-18T07:07:35;4.95;;;1.85;;
25667;SDS011;18003;-33.830;151.202;2022-12-18T07:10:05;6.58;;;2.00;;
25667;SDS011;18003;-33.830;151.202;2022-12-18T07:12:35;7.08;;;2.27;;
25667;SDS011;18003;-33.830;151.202;2022-12-18T07:15:05;4.65;;;2.10;;
25667;SDS011;18003;-33.830;151.202;2022-12-18T07:17:36;4.92;;;1.82;;
25667;SDS011;18003;-33.830;151.202;2022-12-18T07:20:07;6.55;;;2.70;;
25667;SDS011;18003;-33.830;151.202;2022-12-18T07:22:38;6.58;;;2.37;;
25667;SDS011;18003;-33.830;151.202;2022-12-18T07:25:08;7.80;;;2.35;;
25667;SDS011;18003;-33.830;151.202;2022-12-18T07:27:38;7.62;;;2.27;;
25667;SDS011;18003;-33.830;151.202;2022-12-18T07:30:08;9.48;;;2.17;;
25667;SDS011;18003;-33.830;151.202;2022-12-18T07:32:39;5.80;;;1.60;;
25667;SDS011;18003;-33.830;151.202;2022-12-18T07:35:09;6.03;;;1.80;;
25667;SDS011;18003;-33.830;151.202;2022-12-18T07:37:39;5.03;;;1.60;;
25667;SDS011;18003;-33.830;151.202;2022-12-18T07:40:09;4.20;;;1.62;;
25667;SDS011;18003;-33.830;151.202;2022-12-18T07:42:39;6.37;;;2.20;;
25667;SDS011;18003;-33.830;151.202;2022-12-18T07:45:09;7.08;;;2.40;;
25667;SDS011;18003;-33.830;151.202;2022-12-18T07:47:39;7.22;;;2.27;;
25667;SDS011;18003;-33.830;151.202;2022-12-18T07:50:10;8.40;;;2.33;;
25667;SDS011;18003;-33.830;151.202;2022-12-18T07:52:40;5.22;;;1.75;;
25667;SDS011;18003;-33.830;151.202;2022-12-18T07:55:10;6.25;;;1.95;;
25667;SDS011;18003;-33.830;151.202;2022-12-18T07:57:40;5.62;;;2.00;;
25667;SDS011;18003;-33.830;151.202;2022-12-18T08:00:10;8.88;;;2.27;;
25667;SDS011;18003;-33.830;151.202;2022-12-18T08:02:41;6.60;;;2.22;;
25667;SDS011;18003;-33.830;151.202;2022-12-18T08:05:11;14.10;;;2.50;;
25667;SDS011;18003;-33.830;151.202;2022-12-18T08:07:42;6.85;;;2.60;;
25667;SDS011;18003;-33.830;151.202;2022-12-18T08:10:12;12.13;;;2.50;;
25667;SDS011;18003;-33.830;151.202;2022-12-18T08:12:42;8.60;;;2.40;;
25667;SDS011;18003;-33.830;151.202;2022-12-18T08:15:12;7.78;;;2.45;;
25667;SDS011;18003;-33.830;151.202;2022-12-18T08:17:42;6.22;;;2.20;;
25667;SDS011;18003;-33.830;151.202;2022-12-18T08:20:12;7.22;;;2.22;;
25667;SDS011;18003;-33.830;151.202;2022-12-18T08:22:43;5.45;;;2.10;;
25667;SDS011;18003;-33.830;151.202;2022-12-18T08:25:13;7.43;;;2.00;;
25667;SDS011;18003;-33.830;151.202;2022-12-18T08:27:43;7.30;;;2.72;;
25667;SDS011;18003;-33.830;151.202;2022-12-18T08:30:13;6.25;;;1.80;;
25667;SDS011;18003;-33.830;151.202;2022-12-18T08:32:43;6.62;;;2.12;;
25667;SDS011;18003;-33.830;151.202;2022-12-18T08:35:13;6.05;;;2.00;;
25667;SDS011;18003;-33.830;151.202;2022-12-18T08:37:43;6.67;;;2.10;;
25667;SDS011;18003;-33.830;151.202;2022-12-18T08:40:13;5.60;;;2.08;;
25667;SDS011;18003;-33.830;151.202;2022-12-18T08:42:43;5.47;;;2.27;;
25667;SDS011;18003;-33.830;151.202;2022-12-18T08:45:27;5.03;;;1.98;;
25667;SDS011;18003;-33.830;151.202;2022-12-18T08:47:58;4.97;;;1.87;;
25667;SDS011;18003;-33.830;151.202;2022-12-18T08:50:28;4.75;;;1.95;;
25667;SDS011;18003;-33.830;151.202;2022-12-18T08:52:58;3.05;;;1.62;;
25667;SDS011;18003;-33.830;151.202;2022-12-18T08:55:28;5.62;;;1.75;;
25667;SDS011;18003;-33.830;151.202;2022-12-18T08:57:58;5.45;;;2.00;;
25667;SDS011;18003;-33.830;151.202;2022-12-18T09:00:28;5.25;;;1.52;;
25667;SDS011;18003;-33.830;151.202;2022-12-18T09:03:01;7.15;;;2.30;;
25667;SDS011;18003;-33.830;151.202;2022-12-18T09:05:31;6.95;;;1.70;;
25667;SDS011;18003;-33.830;151.202;2022-12-18T09:08:01;4.60;;;1.70;;
25667;SDS011;18003;-33.830;151.202;2022-12-18T09:10:31;5.10;;;1.95;;
25667;SDS011;18003;-33.830;151.202;2022-12-18T09:13:01;2.15;;;1.27;;
25667;SDS011;18003;-33.830;151.202;2022-12-18T09:15:31;6.17;;;1.90;;
25667;SDS011;18003;-33.830;151.202;2022-12-18T09:18:01;3.47;;;1.35;;
25667;SDS011;18003;-33.830;151.202;2022-12-18T09:20:31;4.20;;;1.37;;
25667;SDS011;18003;-33.830;151.202;2022-12-18T09:23:01;3.27;;;1.50;;
25667;SDS011;18003;-33.830;151.202;2022-12-18T09:25:31;2.72;;;1.35;;
25667;SDS011;18003;-33.830;151.202;2022-12-18T09:28:02;3.72;;;1.60;;
25667;SDS011;18003;-33.830;151.202;2022-12-18T09:30:34;3.80;;;1.30;;
25667;SDS011;18003;-33.830;151.202;2022-12-18T09:33:09;3.80;;;1.10;;
25667;SDS011;18003;-33.830;151.202;2022-12-18T09:35:39;1.92;;;1.10;;
25667;SDS011;18003;-33.830;151.202;2022-12-18T09:38:11;1.37;;;1.10;;
25667;SDS011;18003;-33.830;151.202;2022-12-18T09:43:34;2.55;;;1.30;;
25667;SDS011;18003;-33.830;151.202;2022-12-18T09:46:10;3.15;;;1.40;;
25667;SDS011;18003;-33.830;151.202;2022-12-18T09:48:39;4.00;;;1.60;;
25667;SDS011;18003;-33.830;151.202;2022-12-18T09:51:22;2.95;;;1.57;;
25667;SDS011;18003;-33.830;151.202;2022-12-18T09:53:50;6.55;;;1.80;;
25667;SDS011;18003;-33.830;151.202;2022-12-18T09:58:52;3.05;;;1.45;;
25667;SDS011;18003;-33.830;151.202;2022-12-18T10:01:21;5.62;;;2.20;;
25667;SDS011;18003;-33.830;151.202;2022-12-18T10:03:52;3.60;;;1.85;;
25667;SDS011;18003;-33.830;151.202;2022-12-18T10:09:02;5.97;;;1.92;;
25667;SDS011;18003;-33.830;151.202;2022-12-18T10:11:54;5.20;;;2.03;;
25667;SDS011;18003;-33.830;151.202;2022-12-18T10:14:41;6.92;;;2.50;;
25667;SDS011;18003;-33.830;151.202;2022-12-18T10:22:48;7.15;;;2.22;;
25667;SDS011;18003;-33.830;151.202;2022-12-18T10:28:15;6.85;;;2.40;;
25667;SDS011;18003;-33.830;151.202;2022-12-18T10:30:47;6.10;;;2.35;;
25667;SDS011;18003;-33.830;151.202;2022-12-18T10:33:17;5.33;;;2.20;;
25667;SDS011;18003;-33.830;151.202;2022-12-18T10:35:54;7.40;;;2.45;;
25667;SDS011;18003;-33.830;151.202;2022-12-18T10:38:30;6.90;;;2.67;;
25667;SDS011;18003;-33.830;151.202;2022-12-18T10:40:55;9.28;;;2.37;;
25667;SDS011;18003;-33.830;151.202;2022-12-18T10:43:33;6.30;;;1.90;;
25667;SDS011;18003;-33.830;151.202;2022-12-18T10:51:33;7.20;;;2.42;;
25667;SDS011;18003;-33.830;151.202;2022-12-18T10:54:19;7.10;;;2.02;;
25667;SDS011;18003;-33.830;151.202;2022-12-18T10:56:50;4.92;;;1.95;;
25667;SDS011;18003;-33.830;151.202;2022-12-18T10:59:21;7.00;;;2.12;;
25667;SDS011;18003;-33.830;151.202;2022-12-18T11:01:57;7.92;;;2.10;;
25667;SDS011;18003;-33.830;151.202;2022-12-18T11:04:29;4.65;;;2.12;;
25667;SDS011;18003;-33.830;151.202;2022-12-18T11:07:07;7.30;;;1.90;;
25667;SDS011;18003;-33.830;151.202;2022-12-18T11:09:38;6.28;;;2.20;;
25667;SDS011;18003;-33.830;151.202;2022-12-18T11:12:15;5.47;;;2.08;;
25667;SDS011;18003;-33.830;151.202;2022-12-18T11:14:52;5.70;;;2.27;;
25667;SDS011;18003;-33.830;151.202;2022-12-18T11:17:19;6.72;;;2.20;;
25667;SDS011;18003;-33.830;151.202;2022-12-18T11:19:57;5.37;;;2.17;;
25667;SDS011;18003;-33.830;151.202;2022-12-18T11:22:29;5.92;;;2.10;;
25667;SDS011;18003;-33.830;151.202;2022-12-18T11:27:35;7.28;;;2.00;;
25667;SDS011;18003;-33.830;151.202;2022-12-18T11:30:10;7.78;;;2.10;;
25667;SDS011;18003;-33.830;151.202;2022-12-18T11:32:58;10.30;;;2.43;;
25667;SDS011;18003;-33.830;151.202;2022-12-18T11:38:20;6.97;;;2.30;;
25667;SDS011;18003;-33.830;151.202;2022-12-18T11:44:38;11.63;;;2.25;;
25667;SDS011;18003;-33.830;151.202;2022-12-18T11:49:03;7.80;;;2.10;;
25667;SDS011;18003;-33.830;151.202;2022-12-18T11:53:57;5.35;;;1.98;;
25667;SDS011;18003;-33.830;151.202;2022-12-18T11:56:35;9.40;;;2.58;;
25667;SDS011;18003;-33.830;151.202;2022-12-18T11:59:15;11.03;;;2.70;;
25667;SDS011;18003;-33.830;151.202;2022-12-18T12:01:55;8.45;;;2.40;;
25667;SDS011;18003;-33.830;151.202;2022-12-18T12:07:03;6.37;;;2.15;;
25667;SDS011;18003;-33.830;151.202;2022-12-18T12:26:46;6.42;;;2.37;;
25667;SDS011;18003;-33.830;151.202;2022-12-18T12:29:22;6.97;;;2.20;;
25667;SDS011;18003;-33.830;151.202;2022-12-18T12:32:08;8.03;;;2.12;;
25667;SDS011;18003;-33.830;151.202;2022-12-18T12:34:38;10.38;;;2.80;;
25667;SDS011;18003;-33.830;151.202;2022-12-18T12:39:58;6.53;;;2.33;;
25667;SDS011;18003;-33.830;151.202;2022-12-18T12:42:42;6.95;;;2.15;;
25667;SDS011;18003;-33.830;151.202;2022-12-18T12:51:15;6.53;;;2.33;;
25667;SDS011;18003;-33.830;151.202;2022-12-18T12:53:50;6.22;;;1.98;;
25667;SDS011;18003;-33.830;151.202;2022-12-18T12:56:22;5.03;;;1.98;;
25667;SDS011;18003;-33.830;151.202;2022-12-18T13:01:54;7.45;;;2.00;;
25667;SDS011;18003;-33.830;151.202;2022-12-18T13:04:42;5.47;;;1.90;;
25667;SDS011;18003;-33.830;151.202;2022-12-18T13:07:13;7.05;;;2.25;;
25667;SDS011;18003;-33.830;151.202;2022-12-18T13:12:56;7.12;;;2.40;;
25667;SDS011;18003;-33.830;151.202;2022-12-18T13:15:40;5.95;;;1.98;;
25667;SDS011;18003;-33.830;151.202;2022-12-18T13:23:34;7.60;;;2.25;;
25667;SDS011;18003;-33.830;151.202;2022-12-18T13:36:48;12.33;;;3.22;;
25667;SDS011;18003;-33.830;151.202;2022-12-18T13:41:54;11.40;;;3.77;;
25667;SDS011;18003;-33.830;151.202;2022-12-18T13:44:38;16.80;;;3.72;;
25667;SDS011;18003;-33.830;151.202;2022-12-18T13:47:30;15.38;;;3.55;;
25667;SDS011;18003;-33.830;151.202;2022-12-18T13:49:56;13.90;;;3.62;;
25667;SDS011;18003;-33.830;151.202;2022-12-18T13:52:27;14.15;;;3.50;;
25667;SDS011;18003;-33.830;151.202;2022-12-18T13:54:59;17.05;;;3.37;;
25667;SDS011;18003;-33.830;151.202;2022-12-18T13:57:31;12.95;;;3.50;;
25667;SDS011;18003;-33.830;151.202;2022-12-18T14:00:24;15.63;;;4.10;;
25667;SDS011;18003;-33.830;151.202;2022-12-18T14:02:46;12.43;;;3.67;;
25667;SDS011;18003;-33.830;151.202;2022-12-18T14:05:30;12.50;;;3.50;;
25667;SDS011;18003;-33.830;151.202;2022-12-18T14:08:04;15.23;;;3.85;;
25667;SDS011;18003;-33.830;151.202;2022-12-18T14:10:35;17.05;;;3.92;;
25667;SDS011;18003;-33.830;151.202;2022-12-18T14:13:18;15.45;;;4.25;;
25667;SDS011;18003;-33.830;151.202;2022-12-18T14:15:46;23.35;;;4.60;;
25667;SDS011;18003;-33.830;151.202;2022-12-18T14:20:55;15.85;;;4.03;;
25667;SDS011;18003;-33.830;151.202;2022-12-18T14:23:41;15.90;;;4.10;;
25667;SDS011;18003;-33.830;151.202;2022-12-18T14:28:56;19.70;;;5.05;;
25667;SDS011;18003;-33.830;151.202;2022-12-18T14:31:30;17.25;;;3.87;;
25667;SDS011;18003;-33.830;151.202;2022-12-18T14:34:00;13.78;;;3.65;;
25667;SDS011;18003;-33.830;151.202;2022-12-18T14:36:31;18.17;;;3.72;;
25667;SDS011;18003;-33.830;151.202;2022-12-18T14:39:01;19.60;;;4.15;;
25667;SDS011;18003;-33.830;151.202;2022-12-18T14:41:31;16.73;;;4.30;;
25667;SDS011;18003;-33.830;151.202;2022-12-18T14:44:05;15.43;;;3.60;;
25667;SDS011;18003;-33.830;151.202;2022-12-18T14:49:18;18.07;;;3.85;;
25667;SDS011;18003;-33.830;151.202;2022-12-18T14:51:55;14.50;;;3.83;;
25667;SDS011;18003;-33.830;151.202;2022-12-18T14:54:27;14.33;;;3.80;;
25667;SDS011;18003;-33.830;151.202;2022-12-18T14:57:04;18.95;;;4.08;;
25667;SDS011;18003;-33.830;151.202;2022-12-18T14:59:36;13.15;;;3.52;;
25667;SDS011;18003;-33.830;151.202;2022-12-18T15:02:18;14.50;;;3.30;;
25667;SDS011;18003;-33.830;151.202;2022-12-18T15:05:00;13.70;;;3.35;;
25667;SDS011;18003;-33.830;151.202;2022-12-18T15:07:44;14.78;;;3.42;;
25667;SDS011;18003;-33.830;151.202;2022-12-18T15:10:20;16.97;;;3.60;;
25667;SDS011;18003;-33.830;151.202;2022-12-18T15:13:06;15.10;;;3.62;;
25667;SDS011;18003;-33.830;151.202;2022-12-18T15:20:59;17.65;;;3.70;;
25667;SDS011;18003;-33.830;151.202;2022-12-18T15:26:17;12.03;;;3.60;;
25667;SDS011;18003;-33.830;151.202;2022-12-18T15:28:56;10.93;;;3.08;;
25667;SDS011;18003;-33.830;151.202;2022-12-18T15:31:33;12.18;;;2.98;;
25667;SDS011;18003;-33.830;151.202;2022-12-18T15:34:23;10.03;;;3.22;;
25667;SDS011;18003;-33.830;151.202;2022-12-18T15:36:50;10.98;;;3.17;;
25667;SDS011;18003;-33.830;151.202;2022-12-18T15:39:21;10.28;;;2.98;;
25667;SDS011;18003;-33.830;151.202;2022-12-18T15:41:51;10.93;;;3.10;;
25667;SDS011;18003;-33.830;151.202;2022-12-18T15:44:38;12.65;;;3.30;;
25667;SDS011;18003;-33.830;151.202;2022-12-18T15:47:14;11.53;;;3.00;;
25667;SDS011;18003;-33.830;151.202;2022-12-18T15:49:39;12.58;;;3.05;;
25667;SDS011;18003;-33.830;151.202;2022-12-18T15:52:09;14.55;;;3.50;;
25667;SDS011;18003;-33.830;151.202;2022-12-18T15:54:42;18.35;;;4.08;;
25667;SDS011;18003;-33.830;151.202;2022-12-18T15:57:30;18.77;;;3.95;;
25667;SDS011;18003;-33.830;151.202;2022-12-18T16:00:00;17.92;;;3.98;;
25667;SDS011;18003;-33.830;151.202;2022-12-18T16:02:30;16.02;;;3.80;;
25667;SDS011;18003;-33.830;151.202;2022-12-18T16:05:00;15.43;;;3.20;;
25667;SDS011;18003;-33.830;151.202;2022-12-18T16:07:30;14.58;;;4.03;;
25667;SDS011;18003;-33.830;151.202;2022-12-18T16:10:00;14.93;;;3.60;;
25667;SDS011;18003;-33.830;151.202;2022-12-18T16:12:30;15.80;;;3.95;;
25667;SDS011;18003;-33.830;151.202;2022-12-18T16:15:00;20.40;;;4.75;;
25667;SDS011;18003;-33.830;151.202;2022-12-18T16:17:30;18.70;;;4.70;;
25667;SDS011;18003;-33.830;151.202;2022-12-18T16:20:00;18.25;;;4.30;;
25667;SDS011;18003;-33.830;151.202;2022-12-18T16:22:30;19.87;;;4.55;;
25667;SDS011;18003;-33.830;151.202;2022-12-18T16:25:00;19.05;;;4.78;;
25667;SDS011;18003;-33.830;151.202;2022-12-18T16:27:31;17.42;;;4.28;;
25667;SDS011;18003;-33.830;151.202;2022-12-18T16:30:02;15.03;;;3.77;;
25667;SDS011;18003;-33.830;151.202;2022-12-18T16:32:32;25.97;;;4.85;;
25667;SDS011;18003;-33.830;151.202;2022-12-18T16:35:02;21.15;;;4.33;;
25667;SDS011;18003;-33.830;151.202;2022-12-18T16:37:32;19.60;;;4.70;;
25667;SDS011;18003;-33.830;151.202;2022-12-18T16:40:04;24.70;;;5.15;;
25667;SDS011;18003;-33.830;151.202;2022-12-18T16:42:35;17.75;;;4.67;;
25667;SDS011;18003;-33.830;151.202;2022-12-18T16:45:06;19.92;;;4.50;;
25667;SDS011;18003;-33.830;151.202;2022-12-18T16:47:37;22.62;;;4.65;;
25667;SDS011;18003;-33.830;151.202;2022-12-18T16:50:08;18.77;;;4.35;;
25667;SDS011;18003;-33.830;151.202;2022-12-18T16:52:38;13.50;;;4.10;;
25667;SDS011;18003;-33.830;151.202;2022-12-18T16:55:09;18.67;;;4.45;;